logo
Search for airport 
image banner adimage banner adimage banner ad
image banner ad

FYLZ - Luderitz

Located in Luderitz, Namibia

ICAO - FYLZ, IATA - LUD

Data provided by Airmate  

General information

Coordinates: S26°41'7" E15°14'44"
Elevation is 457 feet MSL.
 
View others Airports in Karas

Operational data

Special qualification required
Current time UTC:
Current local time:
Weather
TAF: TAF FYLZ 081700Z 0818/0903 20024KT CAVOK BECMG 0820/0822 18012KT
View NOTAMs / SUP AIP / TFR affecting this airport [VIEW]
Communications frequencies: [VIEW]

Runways:

RWY identifierQFULength (ft)Width (ft)SurfaceLDA (ft)
1299°391498GVL
30279°391498GVL
0417°600498ASP
22197°600498ASP

Airport contact information

Address: Luderitz Namibia

Satellite view of FYLZ